Beaver Bay, Minnesota
Current Conditions -  °F | °C
As of 11:14 AM on Thursday 18 Dec 2014 (Local Time) from KBFW Reporting Station
Overcast Overcast  
Wind Chill: 20°   Ceiling: 1800
Heat Index: 27°   Visibility: 10mi
Dew Point: 21°   Wind: 6mph
Humidity: 80%   Direction: 40°NE
Pressure: 30.27"   Gusts: NA
Location:  47.26°N, 91.3°W
Report Text: KBFW 181714Z AUTO 04005KT 10SM OVC018 M03/M06 A3027 RMK AO2
Loading
Personal Weather Stations






























Interactive Weather Map New forecast layout! Learn more

10-Day Weather Forecast

Advertisements
Track Severe Weather on mobile